createdAt,value
2023-04-18T00:00:59.017Z,10.30
2023-04-18T00:03:03.887Z,9.80
2023-04-18T00:05:07.679Z,9.73
2023-04-18T00:07:09.959Z,10.30
2023-04-18T00:09:12.144Z,10.10
2023-04-18T00:11:14.361Z,10.75
2023-04-18T00:13:18.364Z,11.35
2023-04-18T00:15:20.585Z,11.90
2023-04-18T00:17:22.788Z,9.23
2023-04-18T00:19:25.090Z,10.60
2023-04-18T00:21:27.238Z,11.25
2023-04-18T00:23:30.238Z,11.45
2023-04-18T00:25:32.646Z,11.65
2023-04-18T00:27:34.791Z,11.63
2023-04-18T00:29:36.961Z,11.25
2023-04-18T00:31:39.129Z,12.80
2023-04-18T00:33:41.392Z,13.77
2023-04-18T00:35:43.571Z,11.55
2023-04-18T00:37:45.809Z,14.23
2023-04-18T00:39:48.021Z,15.55
2023-04-18T00:41:50.282Z,12.55
2023-04-18T00:43:52.496Z,14.00
2023-04-18T00:45:54.761Z,13.38
2023-04-18T00:47:57.113Z,14.88
2023-04-18T00:49:59.685Z,14.88
2023-04-18T00:52:02.083Z,13.27
2023-04-18T00:54:04.923Z,13.10
2023-04-18T00:58:10.207Z,14.05
2023-04-18T01:02:14.696Z,15.02
2023-04-18T01:04:17.614Z,14.05
2023-04-18T01:06:20.188Z,15.18
2023-04-18T01:08:22.443Z,16.33
2023-04-18T01:10:24.661Z,15.73
2023-04-18T01:12:26.881Z,16.50
2023-04-18T01:14:29.047Z,14.55
2023-04-18T01:16:34.796Z,15.93
2023-04-18T01:18:37.092Z,14.80
2023-04-18T01:20:46.694Z,17.60
2023-04-18T01:22:48.972Z,16.40
2023-04-18T01:24:51.113Z,17.83
2023-04-18T01:26:53.356Z,14.90
2023-04-18T01:28:55.654Z,16.55
2023-04-18T01:30:57.870Z,14.65
2023-04-18T01:33:03.558Z,15.90
2023-04-18T01:35:06.047Z,16.02
2023-04-18T01:37:08.230Z,16.58
2023-04-18T01:39:10.484Z,14.50
2023-04-18T01:41:12.739Z,15.80
2023-04-18T01:43:15.104Z,17.00
2023-04-18T01:45:17.505Z,14.95
2023-04-18T01:47:19.744Z,15.25
2023-04-18T01:49:21.928Z,15.23
2023-04-18T01:51:24.158Z,17.38
2023-04-18T01:53:26.325Z,16.88
2023-04-18T01:55:28.528Z,15.98
2023-04-18T01:57:31.164Z,16.48
2023-04-18T01:59:33.364Z,15.77
2023-04-18T02:01:35.483Z,18.17
2023-04-18T02:03:37.876Z,17.65
2023-04-18T02:05:40.182Z,16.60
2023-04-18T02:07:42.826Z,16.90
2023-04-18T02:11:46.980Z,17.75
2023-04-18T02:13:49.168Z,17.08
2023-04-18T02:15:51.637Z,16.13
2023-04-18T02:17:54.426Z,16.42
2023-04-18T02:19:56.604Z,17.20
2023-04-18T02:21:58.735Z,15.85
2023-04-18T02:24:00.911Z,16.77
2023-04-18T02:26:03.009Z,16.85
2023-04-18T02:28:05.329Z,16.58
2023-04-18T02:30:07.947Z,17.85
2023-04-18T02:32:10.205Z,17.23
2023-04-18T02:34:12.761Z,18.48
2023-04-18T02:36:15.406Z,21.70
2023-04-18T02:38:17.631Z,17.77
2023-04-18T02:40:20.179Z,19.10
2023-04-18T02:42:22.413Z,20.27
2023-04-18T02:44:24.707Z,15.88
2023-04-18T02:46:27.019Z,18.83
2023-04-18T02:48:29.318Z,19.77
2023-04-18T02:50:32.134Z,18.35
2023-04-18T02:52:34.284Z,20.92
2023-04-18T02:54:36.446Z,17.27
2023-04-18T02:56:40.116Z,20.02
2023-04-18T02:58:42.469Z,19.52
2023-04-18T03:00:44.786Z,18.63
2023-04-18T03:02:47.140Z,19.63
2023-04-18T03:04:49.406Z,20.63
2023-04-18T03:06:51.592Z,24.02
2023-04-18T03:08:54.304Z,20.40
2023-04-18T03:12:58.735Z,19.98
2023-04-18T03:15:00.881Z,22.13
2023-04-18T03:17:03.303Z,23.00
2023-04-18T03:19:05.730Z,21.40
2023-04-18T03:21:07.963Z,23.65
2023-04-18T03:23:10.241Z,23.38
2023-04-18T03:25:12.481Z,24.27
2023-04-18T03:27:14.733Z,23.55
2023-04-18T03:29:16.869Z,24.70
2023-04-18T03:31:19.076Z,23.40
2023-04-18T03:33:22.503Z,23.98
2023-04-18T03:35:24.659Z,23.85
2023-04-18T03:37:27.155Z,25.55
2023-04-18T03:39:29.346Z,23.27
2023-04-18T03:41:31.539Z,23.45
2023-04-18T03:43:33.847Z,26.15
2023-04-18T03:45:36.002Z,24.55
2023-04-18T03:47:38.233Z,26.70
2023-04-18T03:49:41.042Z,24.67
2023-04-18T03:53:45.666Z,24.98
2023-04-18T03:55:47.965Z,28.05
2023-04-18T03:57:50.134Z,26.75
2023-04-18T03:59:52.446Z,26.02
2023-04-18T04:01:54.608Z,25.30
2023-04-18T04:03:56.948Z,25.25
2023-04-18T04:05:59.220Z,26.27
2023-04-18T04:08:01.486Z,29.80
2023-04-18T04:10:03.718Z,25.15
2023-04-18T04:12:06.106Z,27.00
2023-04-18T04:14:08.269Z,26.73
2023-04-18T04:16:10.660Z,27.02
2023-04-18T04:18:12.843Z,29.73
2023-04-18T04:20:15.122Z,26.63
2023-04-18T04:22:17.460Z,26.35
2023-04-18T04:24:20.486Z,28.90
2023-04-18T04:26:23.312Z,27.92
2023-04-18T04:28:26.300Z,28.05
2023-04-18T04:30:28.699Z,28.67
2023-04-18T04:32:31.029Z,27.40
2023-04-18T04:34:34.479Z,29.10
2023-04-18T04:36:36.806Z,31.73
2023-04-18T04:38:40.503Z,29.15
2023-04-18T04:40:43.395Z,28.77
2023-04-18T04:42:45.936Z,27.75
2023-04-18T04:44:48.248Z,28.30
2023-04-18T04:46:50.662Z,26.42
2023-04-18T04:48:54.398Z,27.65
2023-04-18T04:50:57.737Z,27.15
2023-04-18T04:52:59.933Z,28.00
2023-04-18T04:55:02.148Z,29.15
2023-04-18T04:57:04.473Z,27.80
2023-04-18T04:59:07.657Z,28.80
2023-04-18T05:01:09.922Z,29.20
2023-04-18T05:03:12.331Z,29.80
2023-04-18T05:05:14.665Z,29.30
2023-04-18T05:07:16.834Z,27.63
2023-04-18T05:09:19.057Z,29.15
2023-04-18T05:11:21.251Z,27.48
2023-04-18T05:13:23.467Z,29.50
2023-04-18T05:15:25.655Z,31.75
2023-04-18T05:17:27.861Z,29.58
2023-04-18T05:19:30.146Z,32.00
2023-04-18T05:21:32.812Z,30.83
2023-04-18T05:25:40.293Z,29.65
2023-04-18T05:27:44.223Z,27.33
2023-04-18T05:29:47.788Z,26.75
2023-04-18T05:31:49.957Z,29.27
2023-04-18T05:33:52.125Z,31.90
2023-04-18T05:35:54.788Z,29.98
2023-04-18T05:40:00.739Z,30.58
2023-04-18T05:42:03.452Z,30.02
2023-04-18T05:44:06.053Z,28.23
2023-04-18T05:46:09.166Z,29.67
2023-04-18T05:48:11.648Z,27.77
2023-04-18T05:50:14.052Z,29.95
2023-04-18T05:52:18.945Z,30.27
2023-04-18T05:54:47.216Z,30.40
2023-04-18T05:56:49.318Z,29.35
2023-04-18T05:58:51.719Z,28.83
2023-04-18T06:00:54.010Z,33.60
2023-04-18T06:02:56.403Z,31.20
2023-04-18T06:04:58.884Z,30.35
2023-04-18T06:07:01.425Z,27.92
2023-04-18T06:09:03.891Z,27.63
2023-04-18T06:11:06.212Z,29.80
2023-04-18T06:13:08.360Z,27.50
2023-04-18T06:15:11.174Z,25.60
2023-04-18T06:19:15.528Z,25.70
2023-04-18T06:21:17.878Z,25.45
2023-04-18T06:23:20.057Z,28.02
2023-04-18T06:25:22.251Z,27.63
2023-04-18T06:27:31.041Z,26.00
2023-04-18T06:29:35.570Z,24.80
2023-04-18T06:31:38.342Z,25.10
2023-04-18T06:33:40.604Z,25.63
2023-04-18T06:35:43.009Z,24.00
2023-04-18T06:37:45.431Z,22.38
2023-04-18T06:39:47.604Z,24.85
2023-04-18T06:41:49.786Z,22.38
2023-04-18T06:44:02.860Z,23.67
2023-04-18T06:46:06.614Z,22.77
2023-04-18T06:50:12.882Z,23.27
2023-04-18T06:52:15.032Z,22.58
2023-04-18T06:54:17.256Z,23.88
2023-04-18T06:56:20.514Z,18.92
2023-04-18T06:58:22.687Z,21.83
2023-04-18T07:00:24.834Z,23.15
2023-04-18T07:02:27.155Z,22.73
2023-04-18T07:04:32.543Z,19.73
2023-04-18T07:06:35.789Z,21.25
2023-04-18T07:08:38.038Z,19.80
2023-04-18T07:10:41.072Z,20.10
2023-04-18T07:12:43.240Z,21.63
2023-04-18T07:14:45.428Z,20.63
2023-04-18T07:16:47.624Z,19.92
2023-04-18T07:18:49.851Z,25.77
2023-04-18T07:20:51.999Z,21.00
2023-04-18T07:22:54.174Z,21.27
2023-04-18T07:24:56.312Z,21.95
2023-04-18T07:26:58.455Z,20.52
2023-04-18T07:29:00.596Z,23.63
2023-04-18T07:31:03.650Z,21.33
2023-04-18T07:33:06.432Z,20.60
2023-04-18T07:37:12.579Z,19.35
2023-04-18T07:39:16.399Z,20.92
2023-04-18T07:41:18.612Z,21.17
2023-04-18T07:43:21.028Z,22.50
2023-04-18T07:45:23.266Z,20.55
2023-04-18T07:47:27.521Z,21.83
2023-04-18T07:49:31.311Z,24.13
2023-04-18T07:51:34.248Z,21.77
2023-04-18T07:53:36.662Z,18.15
2023-04-18T07:55:38.887Z,20.45
2023-04-18T07:57:45.261Z,17.80
2023-04-18T07:59:48.640Z,20.42
2023-04-18T08:01:50.842Z,17.98
2023-04-18T08:03:54.946Z,18.20
2023-04-18T08:05:57.314Z,15.30
2023-04-18T08:07:59.469Z,14.35
2023-04-18T08:10:01.735Z,16.42
2023-04-18T08:12:03.997Z,16.42
2023-04-18T08:14:06.154Z,16.90
2023-04-18T08:16:08.373Z,16.27
2023-04-18T08:18:10.552Z,15.77
2023-04-18T08:20:13.073Z,16.60
2023-04-18T08:22:15.247Z,19.50
2023-04-18T08:24:17.379Z,18.15
2023-04-18T08:26:19.880Z,17.02
2023-04-18T08:28:22.035Z,17.38
2023-04-18T08:30:24.287Z,16.95
2023-04-18T08:32:26.597Z,18.10
2023-04-18T08:34:29.355Z,16.50
2023-04-18T08:40:38.347Z,17.83
2023-04-18T08:42:46.624Z,17.20
2023-04-18T08:44:49.122Z,19.13
2023-04-18T08:46:52.534Z,17.90
2023-04-18T08:48:57.876Z,20.52
2023-04-18T08:51:01.528Z,20.75
2023-04-18T08:53:03.789Z,17.85
2023-04-18T08:55:06.282Z,19.13
2023-04-18T08:57:09.186Z,18.60
2023-04-18T08:59:11.662Z,20.02
2023-04-18T09:01:15.090Z,17.63
2023-04-18T09:03:17.280Z,21.02
2023-04-18T09:05:20.317Z,20.42
2023-04-18T09:07:31.335Z,20.95
2023-04-18T09:09:52.620Z,20.35
2023-04-18T09:12:07.615Z,17.38
2023-04-18T09:14:09.816Z,17.25
2023-04-18T09:16:13.384Z,19.92
2023-04-18T09:18:16.475Z,20.02
2023-04-18T09:20:37.765Z,20.23
2023-04-18T09:22:46.309Z,20.30
2023-04-18T09:24:53.574Z,20.10
2023-04-18T09:27:01.252Z,18.65
2023-04-18T09:29:03.412Z,20.08
2023-04-18T09:31:10.193Z,20.98
2023-04-18T09:33:12.564Z,20.88
2023-04-18T09:35:25.353Z,19.70
2023-04-18T09:37:27.712Z,19.58
2023-04-18T09:39:29.841Z,18.90
2023-04-18T09:41:32.878Z,20.10
2023-04-18T09:43:35.038Z,18.10
2023-04-18T09:45:37.483Z,21.02
2023-04-18T09:47:40.006Z,16.42
2023-04-18T09:49:42.196Z,16.85
2023-04-18T09:51:46.021Z,18.63
2023-04-18T09:53:50.277Z,17.25
2023-04-18T09:55:55.546Z,17.90
2023-04-18T09:58:00.531Z,17.58
2023-04-18T10:00:14.395Z,17.50
2023-04-18T10:02:20.846Z,15.63
2023-04-18T10:04:23.216Z,16.27
2023-04-18T10:06:28.159Z,17.80
2023-04-18T10:08:30.424Z,16.60
2023-04-18T10:10:33.127Z,17.65
2023-04-18T10:14:38.394Z,16.75
2023-04-18T10:16:40.828Z,15.18
2023-04-18T10:18:43.587Z,15.38
2023-04-18T10:22:49.001Z,14.63
2023-04-18T10:24:53.223Z,16.42
2023-04-18T10:26:55.975Z,15.57
2023-04-18T10:28:58.931Z,15.90
2023-04-18T10:31:05.708Z,16.77
2023-04-18T10:33:32.422Z,19.08
2023-04-18T10:35:36.160Z,17.58
2023-04-18T10:37:59.662Z,18.48
2023-04-18T10:40:06.306Z,16.55
2023-04-18T10:42:08.442Z,18.33
2023-04-18T10:44:21.901Z,17.58
2023-04-18T10:46:31.809Z,14.68
2023-04-18T10:50:58.963Z,15.52
2023-04-18T10:53:01.101Z,15.52
2023-04-18T10:55:16.450Z,15.70
2023-04-18T10:57:18.603Z,15.45
2023-04-18T10:59:22.718Z,17.30
2023-04-18T11:01:31.187Z,16.58
2023-04-18T11:03:35.110Z,14.90
2023-04-18T11:05:37.483Z,17.75
2023-04-18T11:07:41.765Z,15.48
2023-04-18T11:09:52.376Z,15.43
2023-04-18T11:12:05.097Z,16.88
2023-04-18T11:14:07.302Z,14.77
2023-04-18T11:16:09.734Z,14.75
2023-04-18T11:18:12.014Z,14.57
2023-04-18T11:20:15.192Z,12.50
2023-04-18T11:22:18.123Z,16.65
2023-04-18T11:24:24.133Z,14.95
2023-04-18T11:26:26.716Z,14.68
2023-04-18T11:28:29.346Z,15.27
2023-04-18T11:30:38.684Z,15.45
2023-04-18T11:32:41.128Z,14.15
2023-04-18T11:34:43.315Z,12.77
2023-04-18T11:36:49.286Z,11.85
2023-04-18T11:38:51.473Z,13.35
2023-04-18T11:40:53.672Z,15.05
2023-04-18T11:42:55.965Z,12.63
2023-04-18T11:44:58.163Z,15.98
2023-04-18T11:47:00.291Z,13.23
2023-04-18T11:49:02.578Z,13.00
2023-04-18T11:51:05.531Z,12.98
2023-04-18T11:53:07.706Z,12.23
2023-04-18T11:55:13.695Z,11.48
2023-04-18T11:57:21.491Z,11.95
2023-04-18T11:59:23.614Z,11.20
2023-04-18T12:01:27.181Z,10.98
2023-04-18T12:03:29.806Z,9.68
2023-04-18T12:05:33.522Z,11.20
2023-04-18T12:07:39.985Z,9.27
2023-04-18T12:09:42.237Z,8.80
2023-04-18T12:11:44.456Z,10.57
2023-04-18T12:13:46.743Z,9.07
2023-04-18T12:15:48.911Z,8.63
2023-04-18T12:17:54.325Z,9.80
2023-04-18T12:19:57.738Z,8.88
2023-04-18T12:22:01.195Z,9.90
2023-04-18T12:24:16.035Z,10.60
2023-04-18T12:26:18.417Z,9.32
2023-04-18T12:28:21.192Z,8.75
2023-04-18T12:32:25.464Z,8.52
2023-04-18T12:34:27.922Z,9.82
2023-04-18T12:36:30.894Z,9.60
2023-04-18T12:38:33.049Z,11.30
2023-04-18T12:40:35.285Z,9.88
2023-04-18T12:42:37.563Z,9.90
2023-04-18T12:44:39.708Z,10.30
2023-04-18T12:46:41.873Z,11.10
2023-04-18T12:48:44.056Z,9.85
2023-04-18T12:50:46.216Z,7.97
2023-04-18T12:52:48.706Z,8.50
2023-04-18T12:54:50.851Z,8.02
2023-04-18T12:56:53.133Z,8.63
2023-04-18T12:58:55.243Z,8.15
2023-04-18T13:00:59.020Z,9.13
2023-04-18T13:03:01.414Z,9.10
2023-04-18T13:05:04.654Z,9.23
2023-04-18T13:07:06.827Z,7.78
2023-04-18T13:09:09.346Z,7.55
2023-04-18T13:11:11.702Z,7.85
2023-04-18T13:13:13.964Z,8.07
2023-04-18T13:15:16.765Z,8.43
2023-04-18T13:19:20.950Z,10.25
2023-04-18T13:21:25.194Z,10.55
2023-04-18T13:23:27.390Z,10.73
2023-04-18T13:25:29.636Z,9.05
2023-04-18T13:27:32.022Z,7.10
2023-04-18T13:29:34.253Z,6.65
2023-04-18T13:31:36.594Z,7.35
2023-04-18T13:33:40.285Z,8.45
2023-04-18T13:35:42.446Z,7.15
2023-04-18T13:37:44.681Z,8.02
2023-04-18T13:39:46.830Z,9.15
2023-04-18T13:41:48.984Z,9.52
2023-04-18T13:43:51.144Z,9.95
2023-04-18T13:45:54.107Z,9.68
2023-04-18T13:47:56.344Z,8.25
2023-04-18T13:49:58.602Z,9.05
2023-04-18T13:52:00.990Z,10.05
2023-04-18T13:54:03.248Z,8.05
2023-04-18T13:56:06.037Z,10.23
2023-04-18T14:00:14.087Z,8.07
2023-04-18T14:02:16.415Z,10.88
2023-04-18T14:04:18.992Z,8.90
2023-04-18T14:06:21.285Z,9.75
2023-04-18T14:08:23.452Z,8.93
2023-04-18T14:10:25.659Z,8.70
2023-04-18T14:12:28.090Z,11.18
2023-04-18T14:14:30.403Z,8.80
2023-04-18T14:16:33.445Z,9.63
2023-04-18T14:18:35.674Z,10.43
2023-04-18T14:20:37.862Z,9.60
2023-04-18T14:22:40.097Z,8.70
2023-04-18T14:24:42.496Z,10.65
2023-04-18T14:26:44.672Z,11.23
2023-04-18T14:28:47.033Z,9.27
2023-04-18T14:30:49.187Z,8.80
2023-04-18T14:32:51.643Z,8.02
2023-04-18T14:34:53.879Z,8.98
2023-04-18T14:36:56.145Z,9.32
2023-04-18T14:38:58.343Z,9.43
2023-04-18T14:41:00.649Z,8.32
2023-04-18T14:43:03.141Z,8.88
2023-04-18T14:45:05.610Z,11.13
2023-04-18T14:47:07.929Z,8.73
2023-04-18T14:49:10.164Z,9.00
2023-04-18T14:51:12.356Z,8.57
2023-04-18T14:53:14.669Z,8.70
2023-04-18T14:55:16.851Z,9.35
2023-04-18T14:57:19.042Z,8.85
2023-04-18T14:59:21.237Z,7.70
2023-04-18T15:01:23.592Z,9.27
2023-04-18T15:03:25.960Z,7.70
2023-04-18T15:05:28.250Z,8.25
2023-04-18T15:07:30.615Z,9.05
2023-04-18T15:09:36.875Z,8.13
2023-04-18T15:11:39.149Z,9.70
2023-04-18T15:13:41.470Z,10.05
2023-04-18T15:15:43.604Z,9.77
2023-04-18T15:17:45.817Z,8.38
2023-04-18T15:19:48.450Z,6.93
2023-04-18T15:21:50.627Z,8.55
2023-04-18T15:23:52.791Z,8.23
2023-04-18T15:25:55.018Z,8.40
2023-04-18T15:27:58.215Z,8.40
2023-04-18T15:30:00.449Z,9.18
2023-04-18T15:32:02.654Z,11.70
2023-04-18T15:34:04.946Z,9.20
2023-04-18T15:36:07.213Z,9.90
2023-04-18T15:38:09.451Z,8.48
2023-04-18T15:40:16.066Z,8.68
2023-04-18T15:42:18.311Z,8.25
2023-04-18T15:44:20.579Z,7.75
2023-04-18T15:46:22.846Z,7.75
2023-04-18T15:48:25.278Z,8.52
2023-04-18T15:50:27.608Z,9.65
2023-04-18T15:52:30.122Z,10.85
2023-04-18T15:54:32.289Z,8.30
2023-04-18T15:56:36.710Z,8.98
2023-04-18T15:58:38.888Z,9.82
2023-04-18T16:00:41.063Z,8.68
2023-04-18T16:02:44.567Z,6.95
2023-04-18T16:04:46.975Z,7.90
2023-04-18T16:06:49.164Z,9.43
2023-04-18T16:08:51.526Z,7.45
2023-04-18T16:10:53.684Z,7.25
2023-04-18T16:12:56.140Z,6.55
2023-04-18T16:14:58.360Z,7.32
2023-04-18T16:17:00.671Z,7.55
2023-04-18T16:19:04.308Z,6.55
2023-04-18T16:21:06.550Z,7.38
2023-04-18T16:23:08.697Z,6.80
2023-04-18T16:25:11.067Z,7.95
2023-04-18T16:27:13.346Z,9.20
2023-04-18T16:29:15.600Z,8.45
2023-04-18T16:31:17.819Z,9.18
2023-04-18T16:33:24.416Z,10.40
2023-04-18T16:35:26.826Z,9.07
2023-04-18T16:37:29.026Z,9.77
2023-04-18T16:39:31.254Z,10.18
2023-04-18T16:41:33.544Z,10.57
2023-04-18T16:43:38.634Z,8.27
2023-04-18T16:45:40.898Z,7.95
2023-04-18T16:47:43.087Z,10.50
2023-04-18T16:49:47.612Z,10.15
2023-04-18T16:51:50.294Z,8.55
2023-04-18T16:53:52.439Z,9.93
2023-04-18T16:55:54.631Z,8.23
2023-04-18T16:57:56.900Z,8.68
2023-04-18T17:00:02.074Z,8.23
2023-04-18T17:02:04.532Z,8.55
2023-04-18T17:04:06.877Z,8.70
2023-04-18T17:06:09.045Z,7.95
2023-04-18T17:08:11.405Z,8.50
2023-04-18T17:10:13.654Z,9.82
2023-04-18T17:12:15.914Z,7.85
2023-04-18T17:14:18.316Z,8.15
2023-04-18T17:16:20.564Z,7.78
2023-04-18T17:18:23.009Z,7.40
2023-04-18T17:20:25.372Z,7.65
2023-04-18T17:22:27.948Z,7.47
2023-04-18T17:24:30.293Z,8.85
2023-04-18T17:26:32.675Z,7.88
2023-04-18T17:28:35.316Z,7.95
2023-04-18T17:30:40.711Z,8.93
2023-04-18T17:32:45.921Z,8.35
2023-04-18T17:34:48.614Z,8.55
2023-04-18T17:36:50.938Z,9.32
2023-04-18T17:38:53.170Z,9.57
2023-04-18T17:40:59.647Z,9.70
2023-04-18T17:43:01.832Z,9.32
2023-04-18T17:45:05.051Z,8.23
2023-04-18T17:47:07.566Z,10.85
2023-04-18T17:49:10.415Z,10.95
2023-04-18T17:53:14.861Z,11.77
2023-04-18T17:55:17.081Z,11.23
2023-04-18T17:57:19.314Z,13.27
2023-04-18T17:59:21.573Z,9.77
2023-04-18T18:01:24.880Z,12.38
2023-04-18T18:03:27.523Z,10.77
2023-04-18T18:07:37.156Z,11.18
2023-04-18T18:09:41.603Z,11.55
2023-04-18T18:11:43.759Z,13.40
2023-04-18T18:13:46.802Z,13.52
2023-04-18T18:15:48.996Z,13.27
2023-04-18T18:17:51.839Z,15.00
2023-04-18T18:19:54.089Z,12.73
2023-04-18T18:21:56.384Z,12.93
2023-04-18T18:23:58.591Z,12.88
2023-04-18T18:26:01.069Z,14.20
2023-04-18T18:28:03.678Z,13.40
2023-04-18T18:30:06.767Z,15.02
2023-04-18T18:32:08.965Z,14.95
2023-04-18T18:34:11.383Z,16.17
2023-04-18T18:36:13.610Z,15.63
2023-04-18T18:38:15.785Z,14.30
2023-04-18T18:40:17.905Z,15.80
2023-04-18T18:42:20.116Z,15.35
2023-04-18T18:44:22.276Z,14.60
2023-04-18T18:46:24.741Z,13.32
2023-04-18T18:48:30.033Z,13.95
2023-04-18T18:50:32.189Z,12.63
2023-04-18T18:52:34.539Z,12.10
2023-04-18T18:54:36.920Z,12.85
2023-04-18T18:56:40.084Z,12.82
2023-04-18T18:58:43.772Z,14.15
2023-04-18T19:00:46.937Z,12.25
2023-04-18T19:02:49.397Z,13.48
2023-04-18T19:04:51.683Z,10.90
2023-04-18T19:06:53.941Z,10.95
2023-04-18T19:08:56.124Z,11.88
2023-04-18T19:10:58.295Z,11.63
2023-04-18T19:13:00.465Z,11.68
2023-04-18T19:15:02.987Z,11.05
2023-04-18T19:17:06.400Z,11.98
2023-04-18T19:19:08.587Z,10.55
2023-04-18T19:21:11.176Z,11.52
2023-04-18T19:23:13.372Z,11.55
2023-04-18T19:25:15.671Z,11.48
2023-04-18T19:27:17.996Z,10.85
2023-04-18T19:29:20.385Z,12.40
2023-04-18T19:31:22.647Z,15.48
2023-04-18T19:33:24.847Z,12.10
2023-04-18T19:35:27.005Z,13.82
2023-04-18T19:37:29.601Z,11.98
2023-04-18T19:39:32.041Z,13.18
2023-04-18T19:41:34.208Z,13.38
2023-04-18T19:43:38.409Z,14.15
2023-04-18T19:45:40.992Z,13.25
2023-04-18T19:47:44.357Z,12.82
2023-04-18T19:49:46.539Z,12.82
2023-04-18T19:51:50.225Z,11.77
2023-04-18T19:53:52.522Z,13.65
2023-04-18T19:55:55.026Z,11.35
2023-04-18T19:57:57.309Z,14.18
2023-04-18T19:59:59.455Z,12.70
2023-04-18T20:02:04.332Z,13.32
2023-04-18T20:04:08.419Z,13.93
2023-04-18T20:08:12.848Z,14.77
2023-04-18T20:10:14.983Z,13.70
2023-04-18T20:12:17.155Z,13.00
2023-04-18T20:14:19.316Z,13.40
2023-04-18T20:16:22.084Z,15.55
2023-04-18T20:20:26.386Z,14.18
2023-04-18T20:22:28.562Z,15.60
2023-04-18T20:24:31.845Z,15.60
2023-04-18T20:26:34.078Z,14.55
2023-04-18T20:28:37.848Z,15.70
2023-04-18T20:30:40.361Z,13.90
2023-04-18T20:32:42.575Z,15.13
2023-04-18T20:34:46.637Z,14.68
2023-04-18T20:36:49.962Z,14.23
2023-04-18T20:38:52.103Z,14.60
2023-04-18T20:40:54.684Z,15.15
2023-04-18T20:42:57.893Z,13.77
2023-04-18T20:45:00.365Z,15.77
2023-04-18T20:47:02.520Z,16.13
2023-04-18T20:49:04.658Z,13.70
2023-04-18T20:51:06.832Z,12.73
2023-04-18T20:53:09.032Z,13.32
2023-04-18T20:55:11.340Z,13.57
2023-04-18T20:57:13.500Z,12.85
2023-04-18T20:59:15.655Z,13.68
2023-04-18T21:01:17.871Z,15.20
2023-04-18T21:03:20.172Z,12.63
2023-04-18T21:05:22.441Z,16.10
2023-04-18T21:07:24.830Z,15.93
2023-04-18T21:09:27.012Z,14.48
2023-04-18T21:11:29.190Z,14.48
2023-04-18T21:13:34.760Z,13.25
2023-04-18T21:15:38.091Z,13.52
2023-04-18T21:17:40.422Z,14.70
2023-04-18T21:19:42.615Z,14.77
2023-04-18T21:21:44.750Z,13.38
2023-04-18T21:23:46.865Z,14.20
2023-04-18T21:25:49.041Z,13.60
2023-04-18T21:27:51.304Z,15.63
2023-04-18T21:29:53.440Z,16.08
2023-04-18T21:31:55.681Z,14.02
2023-04-18T21:33:58.747Z,15.23
2023-04-18T21:36:00.885Z,13.07
2023-04-18T21:38:03.094Z,14.35
2023-04-18T21:40:05.770Z,14.15
2023-04-18T21:44:10.623Z,15.00
2023-04-18T21:46:12.960Z,14.25
2023-04-18T21:48:15.460Z,17.05
2023-04-18T21:50:17.648Z,15.93
2023-04-18T21:52:19.818Z,17.10
2023-04-18T21:54:21.980Z,15.93
2023-04-18T21:56:24.216Z,15.65
2023-04-18T21:58:26.487Z,15.68
2023-04-18T22:00:28.686Z,16.42
2023-04-18T22:02:30.956Z,17.10
2023-04-18T22:04:33.888Z,16.25
2023-04-18T22:06:36.223Z,17.08
2023-04-18T22:08:38.438Z,18.10
2023-04-18T22:10:40.662Z,20.67
2023-04-18T22:12:43.882Z,15.90
2023-04-18T22:14:48.350Z,17.75
2023-04-18T22:16:50.713Z,16.95
2023-04-18T22:18:52.928Z,17.88
2023-04-18T22:20:55.141Z,19.48
2023-04-18T22:22:57.293Z,17.42
2023-04-18T22:24:59.514Z,18.42
2023-04-18T22:27:02.865Z,18.02
2023-04-18T22:29:05.098Z,17.20
2023-04-18T22:31:07.312Z,18.25
2023-04-18T22:33:09.551Z,17.13
2023-04-18T22:35:11.765Z,19.63
2023-04-18T22:37:14.057Z,22.77
2023-04-18T22:39:16.200Z,19.58
2023-04-18T22:41:18.379Z,16.83
2023-04-18T22:43:23.613Z,21.38
2023-04-18T22:45:25.897Z,15.90
2023-04-18T22:47:28.101Z,16.90
2023-04-18T22:49:30.349Z,19.88
2023-04-18T22:51:32.577Z,16.08
2023-04-18T22:53:34.850Z,16.25
2023-04-18T22:55:41.246Z,15.40
2023-04-18T22:57:43.549Z,17.73
2023-04-18T22:59:45.989Z,16.52
2023-04-18T23:01:48.347Z,17.65
2023-04-18T23:03:50.716Z,16.42
2023-04-18T23:05:53.190Z,16.17
2023-04-18T23:07:55.426Z,17.50
2023-04-18T23:12:00.241Z,16.67
2023-04-18T23:14:02.432Z,15.52
2023-04-18T23:16:04.721Z,16.50
2023-04-18T23:18:07.234Z,15.88
2023-04-18T23:20:10.970Z,16.95
2023-04-18T23:22:13.212Z,16.88
2023-04-18T23:24:15.915Z,14.93
2023-04-18T23:26:18.889Z,19.10
2023-04-18T23:30:23.219Z,19.77
2023-04-18T23:32:25.607Z,18.10
2023-04-18T23:34:27.784Z,15.48
2023-04-18T23:36:29.940Z,17.83
2023-04-18T23:38:32.450Z,17.42
2023-04-18T23:40:35.174Z,17.48
2023-04-18T23:44:39.510Z,16.90
2023-04-18T23:46:41.728Z,18.38
2023-04-18T23:48:43.988Z,20.02
2023-04-18T23:50:47.000Z,16.80
2023-04-18T23:52:49.208Z,17.02
2023-04-18T23:54:51.732Z,16.02
2023-04-18T23:56:53.877Z,16.25
2023-04-18T23:58:56.250Z,17.45
